sensor_id;sensor_type;location;lat;lon;timestamp;pressure;altitude;pressure_sealevel;temperature;humidity
7075;BME280;3578;51.568;6.932;2023-03-14T00:01:12;52464.56;;;-144.14;93.26
7075;BME280;3578;51.568;6.932;2023-03-14T00:03:40;52452.53;;;-144.14;93.28
7075;BME280;3578;51.568;6.932;2023-03-14T00:06:09;52476.59;;;-144.14;93.26
7075;BME280;3578;51.568;6.932;2023-03-14T00:08:38;52460.56;;;-144.14;93.07
7075;BME280;3578;51.568;6.932;2023-03-14T00:11:08;52466.56;;;-144.14;93.10
7075;BME280;3578;51.568;6.932;2023-03-14T00:13:36;52416.47;;;-144.14;93.26
7075;BME280;3578;51.568;6.932;2023-03-14T00:16:08;52412.47;;;-144.14;92.96
7075;BME280;3578;51.568;6.932;2023-03-14T00:18:36;52452.53;;;-144.14;92.73
7075;BME280;3578;51.568;6.932;2023-03-14T00:21:05;52460.56;;;-144.14;92.83
7075;BME280;3578;51.568;6.932;2023-03-14T00:23:35;52442.53;;;-144.14;92.77
7075;BME280;3578;51.568;6.932;2023-03-14T00:26:05;52444.53;;;-144.14;92.64
7075;BME280;3578;51.568;6.932;2023-03-14T00:28:32;52464.56;;;-144.14;92.25
7075;BME280;3578;51.568;6.932;2023-03-14T00:31:02;52478.59;;;-144.14;91.82
7075;BME280;3578;51.568;6.932;2023-03-14T00:33:31;52512.66;;;-144.14;91.74
7075;BME280;3578;51.568;6.932;2023-03-14T00:36:01;52522.66;;;-144.14;91.40
7075;BME280;3578;51.568;6.932;2023-03-14T00:38:29;52516.66;;;-144.14;92.11
7075;BME280;3578;51.568;6.932;2023-03-14T00:40:56;52488.59;;;-144.14;92.43
7075;BME280;3578;51.568;6.932;2023-03-14T00:43:24;52500.63;;;-144.14;92.72
7075;BME280;3578;51.568;6.932;2023-03-14T00:45:52;52414.47;;;-144.14;92.59
7075;BME280;3578;51.568;6.932;2023-03-14T00:48:20;52484.59;;;-144.14;92.14
7075;BME280;3578;51.568;6.932;2023-03-14T00:50:48;52490.59;;;-144.14;92.40
7075;BME280;3578;51.568;6.932;2023-03-14T00:53:16;52488.59;;;-144.14;93.51
7075;BME280;3578;51.568;6.932;2023-03-14T00:55:44;52352.34;;;-144.14;96.51
7075;BME280;3578;51.568;6.932;2023-03-14T00:58:13;52334.31;;;-144.14;99.04
7075;BME280;3578;51.568;6.932;2023-03-14T01:00:41;52308.28;;;-144.14;100.00
7075;BME280;3578;51.568;6.932;2023-03-14T01:03:08;52262.19;;;-144.14;100.00
7075;BME280;3578;51.568;6.932;2023-03-14T01:05:36;52280.22;;;-144.14;100.00
7075;BME280;3578;51.568;6.932;2023-03-14T01:08:06;52107.94;;;-144.14;100.00
7075;BME280;3578;51.568;6.932;2023-03-14T01:10:33;52117.94;;;-144.14;100.00
7075;BME280;3578;51.568;6.932;2023-03-14T01:13:00;52093.91;;;-144.14;100.00
7075;BME280;3578;51.568;6.932;2023-03-14T01:15:27;52015.78;;;-144.14;100.00
7075;BME280;3578;51.568;6.932;2023-03-14T01:17:54;51943.66;;;-144.14;100.00
7075;BME280;3578;51.568;6.932;2023-03-14T01:20:21;51871.53;;;-144.14;100.00
7075;BME280;3578;51.568;6.932;2023-03-14T01:22:48;51895.56;;;-144.14;100.00
7075;BME280;3578;51.568;6.932;2023-03-14T01:25:18;51837.47;;;-144.14;100.00
7075;BME280;3578;51.568;6.932;2023-03-14T01:27:45;51807.44;;;-144.14;100.00
7075;BME280;3578;51.568;6.932;2023-03-14T01:30:13;51799.41;;;-144.14;100.00
7075;BME280;3578;51.568;6.932;2023-03-14T01:32:40;51767.38;;;-144.14;100.00
7075;BME280;3578;51.568;6.932;2023-03-14T01:35:08;51691.25;;;-144.14;100.00
7075;BME280;3578;51.568;6.932;2023-03-14T01:37:35;51715.28;;;-144.14;100.00
7075;BME280;3578;51.568;6.932;2023-03-14T01:40:03;51559.03;;;-144.14;100.00
7075;BME280;3578;51.568;6.932;2023-03-14T01:42:32;51496.94;;;-144.14;100.00
7075;BME280;3578;51.568;6.932;2023-03-14T01:45:01;51428.84;;;-144.14;100.00
7075;BME280;3578;51.568;6.932;2023-03-14T01:47:28;51360.75;;;-144.14;100.00
7075;BME280;3578;51.568;6.932;2023-03-14T01:50:00;51400.81;;;-144.14;100.00
7075;BME280;3578;51.568;6.932;2023-03-14T01:52:32;51392.78;;;-144.14;100.00
7075;BME280;3578;51.568;6.932;2023-03-14T01:55:05;51456.88;;;-144.14;100.00
7075;BME280;3578;51.568;6.932;2023-03-14T01:57:38;51502.94;;;-144.14;100.00
7075;BME280;3578;51.568;6.932;2023-03-14T02:00:10;51535.00;;;-144.14;100.00
7075;BME280;3578;51.568;6.932;2023-03-14T02:02:41;51587.09;;;-144.14;100.00
7075;BME280;3578;51.568;6.932;2023-03-14T02:05:12;51587.09;;;-144.14;100.00
7075;BME280;3578;51.568;6.932;2023-03-14T02:07:48;51551.03;;;-144.14;100.00
7075;BME280;3578;51.568;6.932;2023-03-14T02:10:17;51585.09;;;-144.14;100.00
7075;BME280;3578;51.568;6.932;2023-03-14T02:12:47;51561.03;;;-144.14;100.00
7075;BME280;3578;51.568;6.932;2023-03-14T02:15:15;51464.91;;;-144.14;100.00
7075;BME280;3578;51.568;6.932;2023-03-14T02:17:43;51468.91;;;-144.14;100.00
7075;BME280;3578;51.568;6.932;2023-03-14T02:20:28;51428.84;;;-144.14;100.00
7075;BME280;3578;51.568;6.932;2023-03-14T02:22:57;51466.91;;;-144.14;100.00
7075;BME280;3578;51.568;6.932;2023-03-14T02:25:31;51470.91;;;-144.14;100.00
7075;BME280;3578;51.568;6.932;2023-03-14T02:28:03;51563.03;;;-144.14;100.00
7075;BME280;3578;51.568;6.932;2023-03-14T02:30:32;51569.06;;;-144.14;100.00
7075;BME280;3578;51.568;6.932;2023-03-14T02:33:02;51619.13;;;-144.14;99.97
7075;BME280;3578;51.568;6.932;2023-03-14T02:35:37;51619.13;;;-144.14;99.65
7075;BME280;3578;51.568;6.932;2023-03-14T02:38:13;51715.28;;;-144.14;99.29
7075;BME280;3578;51.568;6.932;2023-03-14T02:40:42;51687.25;;;-144.14;99.13
7075;BME280;3578;51.568;6.932;2023-03-14T02:43:10;51723.28;;;-144.14;99.01
7075;BME280;3578;51.568;6.932;2023-03-14T02:45:43;51737.31;;;-144.14;99.06
7075;BME280;3578;51.568;6.932;2023-03-14T02:48:15;51695.25;;;-144.14;99.39
7075;BME280;3578;51.568;6.932;2023-03-14T02:50:46;51697.25;;;-144.14;99.51
7075;BME280;3578;51.568;6.932;2023-03-14T02:53:18;51703.25;;;-144.14;99.39
7075;BME280;3578;51.568;6.932;2023-03-14T02:55:46;51711.28;;;-144.14;99.53
7075;BME280;3578;51.568;6.932;2023-03-14T02:58:16;51671.22;;;-144.14;99.76
7075;BME280;3578;51.568;6.932;2023-03-14T03:00:44;51671.22;;;-144.14;99.85
7075;BME280;3578;51.568;6.932;2023-03-14T03:03:11;51673.22;;;-144.14;100.00
7075;BME280;3578;51.568;6.932;2023-03-14T03:05:38;51643.16;;;-144.14;100.00
7075;BME280;3578;51.568;6.932;2023-03-14T03:08:06;51697.25;;;-144.14;98.86
7075;BME280;3578;51.568;6.932;2023-03-14T03:10:33;51767.38;;;-144.14;98.16
7075;BME280;3578;51.568;6.932;2023-03-14T03:13:00;51821.44;;;-144.14;97.65
7075;BME280;3578;51.568;6.932;2023-03-14T03:15:29;51839.47;;;-144.14;97.55
7075;BME280;3578;51.568;6.932;2023-03-14T03:17:56;51835.47;;;-144.14;97.17
7075;BME280;3578;51.568;6.932;2023-03-14T03:20:23;51839.47;;;-144.14;96.95
7075;BME280;3578;51.568;6.932;2023-03-14T03:22:50;51869.53;;;-144.14;96.89
7075;BME280;3578;51.568;6.932;2023-03-14T03:25:17;51859.50;;;-144.14;97.04
7075;BME280;3578;51.568;6.932;2023-03-14T03:27:44;51851.50;;;-144.14;98.12
7075;BME280;3578;51.568;6.932;2023-03-14T03:30:12;51809.44;;;-144.14;98.28
7075;BME280;3578;51.568;6.932;2023-03-14T03:32:41;51847.50;;;-144.14;97.33
7075;BME280;3578;51.568;6.932;2023-03-14T03:35:09;51877.53;;;-144.14;96.94
7075;BME280;3578;51.568;6.932;2023-03-14T03:37:37;51903.59;;;-144.14;96.47
7075;BME280;3578;51.568;6.932;2023-03-14T03:40:05;51895.56;;;-144.14;96.67
7075;BME280;3578;51.568;6.932;2023-03-14T03:42:33;51887.56;;;-144.14;96.58
7075;BME280;3578;51.568;6.932;2023-03-14T03:45:01;51921.63;;;-144.14;96.17
7075;BME280;3578;51.568;6.932;2023-03-14T03:47:30;51943.66;;;-144.14;95.82
7075;BME280;3578;51.568;6.932;2023-03-14T03:49:59;51963.69;;;-144.14;95.59
7075;BME280;3578;51.568;6.932;2023-03-14T03:52:26;51947.66;;;-144.14;95.31
7075;BME280;3578;51.568;6.932;2023-03-14T03:54:53;51971.69;;;-144.14;95.31
7075;BME280;3578;51.568;6.932;2023-03-14T03:57:20;51987.72;;;-144.14;95.14
7075;BME280;3578;51.568;6.932;2023-03-14T03:59:47;51983.72;;;-144.14;95.04
7075;BME280;3578;51.568;6.932;2023-03-14T04:02:14;52017.78;;;-144.14;94.94
7075;BME280;3578;51.568;6.932;2023-03-14T04:04:41;52021.78;;;-144.14;95.03
7075;BME280;3578;51.568;6.932;2023-03-14T04:07:10;51955.69;;;-144.14;95.24
7075;BME280;3578;51.568;6.932;2023-03-14T04:09:39;51969.69;;;-144.14;95.63
7075;BME280;3578;51.568;6.932;2023-03-14T04:12:06;51987.72;;;-144.14;95.66
7075;BME280;3578;51.568;6.932;2023-03-14T04:14:33;51997.75;;;-144.14;96.20
7075;BME280;3578;51.568;6.932;2023-03-14T04:17:00;51955.69;;;-144.14;96.46
7075;BME280;3578;51.568;6.932;2023-03-14T04:19:27;51953.66;;;-144.14;96.56
7075;BME280;3578;51.568;6.932;2023-03-14T04:21:54;51973.72;;;-144.14;96.62
7075;BME280;3578;51.568;6.932;2023-03-14T04:24:23;51917.63;;;-144.14;96.67
7075;BME280;3578;51.568;6.932;2023-03-14T04:26:50;51931.63;;;-144.14;96.87
7075;BME280;3578;51.568;6.932;2023-03-14T04:29:17;51943.66;;;-144.14;96.59
7075;BME280;3578;51.568;6.932;2023-03-14T04:31:44;51981.72;;;-144.14;96.35
7075;BME280;3578;51.568;6.932;2023-03-14T04:34:11;51923.63;;;-144.14;96.97
7075;BME280;3578;51.568;6.932;2023-03-14T04:36:38;51927.63;;;-144.14;98.43
7075;BME280;3578;51.568;6.932;2023-03-14T04:39:05;51885.56;;;-144.14;98.88
7075;BME280;3578;51.568;6.932;2023-03-14T04:41:34;51851.50;;;-144.14;98.59
7075;BME280;3578;51.568;6.932;2023-03-14T04:44:01;51861.53;;;-144.14;98.61
7075;BME280;3578;51.568;6.932;2023-03-14T04:46:28;51811.44;;;-144.14;98.73
7075;BME280;3578;51.568;6.932;2023-03-14T04:48:55;51859.50;;;-144.14;99.20
7075;BME280;3578;51.568;6.932;2023-03-14T04:51:22;51821.44;;;-144.14;99.34
7075;BME280;3578;51.568;6.932;2023-03-14T04:53:53;51781.38;;;-144.14;99.61
7075;BME280;3578;51.568;6.932;2023-03-14T04:56:21;51755.34;;;-144.14;100.00
7075;BME280;3578;51.568;6.932;2023-03-14T04:58:49;51743.34;;;-144.14;100.00
7075;BME280;3578;51.568;6.932;2023-03-14T05:01:16;51749.34;;;-144.14;100.00
7075;BME280;3578;51.568;6.932;2023-03-14T05:03:44;51675.22;;;-144.14;100.00
7075;BME280;3578;51.568;6.932;2023-03-14T05:06:11;51565.06;;;-144.14;100.00
7075;BME280;3578;51.568;6.932;2023-03-14T05:08:38;51539.00;;;-144.14;100.00
7075;BME280;3578;51.568;6.932;2023-03-14T05:11:05;51420.81;;;-144.14;100.00
7075;BME280;3578;51.568;6.932;2023-03-14T05:13:33;51238.56;;;-144.14;100.00
7075;BME280;3578;51.568;6.932;2023-03-14T05:16:06;51200.50;;;-144.14;100.00
7075;BME280;3578;51.568;6.932;2023-03-14T05:18:34;51088.34;;;-144.14;100.00
7075;BME280;3578;51.568;6.932;2023-03-14T05:21:02;51068.31;;;-144.14;100.00
7075;BME280;3578;51.568;6.932;2023-03-14T05:23:30;50994.22;;;-144.14;100.00
7075;BME280;3578;51.568;6.932;2023-03-14T05:25:57;51026.25;;;-144.14;100.00
7075;BME280;3578;51.568;6.932;2023-03-14T05:28:24;51022.25;;;-144.14;100.00
7075;BME280;3578;51.568;6.932;2023-03-14T05:30:51;50966.19;;;-144.14;100.00
7075;BME280;3578;51.568;6.932;2023-03-14T05:33:19;50946.16;;;-144.14;100.00
7075;BME280;3578;51.568;6.932;2023-03-14T05:35:46;50930.13;;;-144.14;100.00
7075;BME280;3578;51.568;6.932;2023-03-14T05:38:13;50914.09;;;-144.14;100.00
7075;BME280;3578;51.568;6.932;2023-03-14T05:40:40;50894.06;;;-144.14;100.00
7075;BME280;3578;51.568;6.932;2023-03-14T05:43:08;50836.00;;;-144.14;100.00
7075;BME280;3578;51.568;6.932;2023-03-14T05:45:35;50761.91;;;-144.14;100.00
7075;BME280;3578;51.568;6.932;2023-03-14T05:48:02;50733.88;;;-144.14;100.00
7075;BME280;3578;51.568;6.932;2023-03-14T05:50:31;50651.75;;;-144.14;100.00
7075;BME280;3578;51.568;6.932;2023-03-14T05:52:58;50637.75;;;-144.14;100.00
7075;BME280;3578;51.568;6.932;2023-03-14T05:55:26;50603.69;;;-144.14;100.00
7075;BME280;3578;51.568;6.932;2023-03-14T05:57:53;50477.53;;;-144.14;100.00
7075;BME280;3578;51.568;6.932;2023-03-14T06:00:21;50205.22;;;-144.14;100.00
7075;BME280;3578;51.568;6.932;2023-03-14T06:02:49;50049.03;;;-144.14;100.00
7075;BME280;3578;51.568;6.932;2023-03-14T06:05:16;49898.88;;;-144.14;100.00
7075;BME280;3578;51.568;6.932;2023-03-14T06:07:44;49744.72;;;-144.14;100.00
7075;BME280;3578;51.568;6.932;2023-03-14T06:10:11;49654.63;;;-144.14;100.00
7075;BME280;3578;51.568;6.932;2023-03-14T06:12:38;49500.50;;;-144.14;100.00
7075;BME280;3578;51.568;6.932;2023-03-14T06:15:07;49172.19;;;-144.14;100.00
7075;BME280;3578;51.568;6.932;2023-03-14T06:17:35;49016.06;;;-144.14;100.00
7075;BME280;3578;51.568;6.932;2023-03-14T06:20:03;48912.00;;;-144.14;100.00
7075;BME280;3578;51.568;6.932;2023-03-14T06:22:30;48811.91;;;-144.14;100.00
7075;BME280;3578;51.568;6.932;2023-03-14T06:24:59;48779.88;;;-144.14;100.00
7075;BME280;3578;51.568;6.932;2023-03-14T06:27:26;48639.78;;;-144.14;100.00
7075;BME280;3578;51.568;6.932;2023-03-14T06:29:53;48533.72;;;-144.14;100.00
7075;BME280;3578;51.568;6.932;2023-03-14T06:32:20;48493.69;;;-144.14;100.00
7075;BME280;3578;51.568;6.932;2023-03-14T06:34:47;48455.66;;;-144.14;100.00
7075;BME280;3578;51.568;6.932;2023-03-14T06:37:14;48401.63;;;-144.14;100.00
7075;BME280;3578;51.568;6.932;2023-03-14T06:39:41;48293.56;;;-144.14;100.00
7075;BME280;3578;51.568;6.932;2023-03-14T06:42:12;48167.50;;;-144.14;100.00
7075;BME280;3578;51.568;6.932;2023-03-14T06:44:39;48103.47;;;-144.14;100.00
7075;BME280;3578;51.568;6.932;2023-03-14T06:47:06;48081.47;;;-144.14;100.00
7075;BME280;3578;51.568;6.932;2023-03-14T06:49:33;48031.44;;;-144.14;100.00
7075;BME280;3578;51.568;6.932;2023-03-14T06:52:00;48059.44;;;-144.14;100.00
7075;BME280;3578;51.568;6.932;2023-03-14T06:54:27;48083.47;;;-144.14;100.00
7075;BME280;3578;51.568;6.932;2023-03-14T06:56:54;48129.47;;;-144.14;100.00
7075;BME280;3578;51.568;6.932;2023-03-14T06:59:23;48147.50;;;-144.14;100.00
7075;BME280;3578;51.568;6.932;2023-03-14T07:01:50;48227.53;;;-144.14;100.00
7075;BME280;3578;51.568;6.932;2023-03-14T07:04:18;48191.50;;;-144.14;100.00
7075;BME280;3578;51.568;6.932;2023-03-14T07:06:45;48211.53;;;-144.14;100.00
7075;BME280;3578;51.568;6.932;2023-03-14T07:09:13;48231.53;;;-144.14;100.00
7075;BME280;3578;51.568;6.932;2023-03-14T07:11:42;48277.56;;;-144.14;100.00
7075;BME280;3578;51.568;6.932;2023-03-14T07:14:09;48373.63;;;-144.14;100.00
7075;BME280;3578;51.568;6.932;2023-03-14T07:16:38;48377.63;;;-144.14;100.00
7075;BME280;3578;51.568;6.932;2023-03-14T07:19:05;48427.66;;;-144.14;100.00
7075;BME280;3578;51.568;6.932;2023-03-14T07:21:32;48423.66;;;-144.14;100.00
7075;BME280;3578;51.568;6.932;2023-03-14T07:24:00;48413.66;;;-144.14;100.00
7075;BME280;3578;51.568;6.932;2023-03-14T07:26:27;48365.63;;;-144.14;100.00
7075;BME280;3578;51.568;6.932;2023-03-14T07:28:54;48343.59;;;-144.14;100.00
7075;BME280;3578;51.568;6.932;2023-03-14T07:31:22;48299.56;;;-144.14;100.00
7075;BME280;3578;51.568;6.932;2023-03-14T07:33:50;48415.66;;;-144.14;100.00
7075;BME280;3578;51.568;6.932;2023-03-14T07:36:18;48529.72;;;-144.14;100.00
7075;BME280;3578;51.568;6.932;2023-03-14T07:38:45;48607.78;;;-144.14;100.00
7075;BME280;3578;51.568;6.932;2023-03-14T07:41:12;48619.78;;;-144.14;100.00
7075;BME280;3578;51.568;6.932;2023-03-14T07:43:39;48685.81;;;-144.14;100.00
7075;BME280;3578;51.568;6.932;2023-03-14T07:46:11;48741.88;;;-144.14;100.00
7075;BME280;3578;51.568;6.932;2023-03-14T07:48:38;48771.88;;;-144.14;100.00
7075;BME280;3578;51.568;6.932;2023-03-14T07:51:07;48883.97;;;-144.14;100.00
7075;BME280;3578;51.568;6.932;2023-03-14T07:53:34;48972.03;;;-144.14;100.00
7075;BME280;3578;51.568;6.932;2023-03-14T07:56:02;49000.06;;;-144.14;100.00
7075;BME280;3578;51.568;6.932;2023-03-14T07:58:29;48984.03;;;-144.14;100.00
7075;BME280;3578;51.568;6.932;2023-03-14T08:00:58;49000.06;;;-144.14;100.00
7075;BME280;3578;51.568;6.932;2023-03-14T08:03:26;48976.03;;;-144.14;100.00
7075;BME280;3578;51.568;6.932;2023-03-14T08:05:53;48885.97;;;-144.14;100.00
7075;BME280;3578;51.568;6.932;2023-03-14T08:08:21;48839.94;;;-144.14;100.00
7075;BME280;3578;51.568;6.932;2023-03-14T08:10:48;48847.94;;;-144.14;100.00
7075;BME280;3578;51.568;6.932;2023-03-14T08:13:15;48920.00;;;-144.14;100.00
7075;BME280;3578;51.568;6.932;2023-03-14T08:15:42;48948.00;;;-144.14;100.00
7075;BME280;3578;51.568;6.932;2023-03-14T08:18:15;49052.09;;;-144.14;100.00
7075;BME280;3578;51.568;6.932;2023-03-14T08:20:42;49030.09;;;-144.14;100.00
7075;BME280;3578;51.568;6.932;2023-03-14T08:23:09;49072.13;;;-144.14;100.00
7075;BME280;3578;51.568;6.932;2023-03-14T08:25:38;49130.16;;;-144.14;100.00
7075;BME280;3578;51.568;6.932;2023-03-14T08:28:05;49156.19;;;-144.14;100.00
7075;BME280;3578;51.568;6.932;2023-03-14T08:30:32;49216.22;;;-144.14;100.00
7075;BME280;3578;51.568;6.932;2023-03-14T08:33:00;49340.34;;;-144.14;100.00
7075;BME280;3578;51.568;6.932;2023-03-14T08:35:27;49486.47;;;-144.14;100.00
7075;BME280;3578;51.568;6.932;2023-03-14T08:37:54;49516.50;;;-144.14;100.00
7075;BME280;3578;51.568;6.932;2023-03-14T08:40:23;49496.47;;;-144.14;100.00
7075;BME280;3578;51.568;6.932;2023-03-14T08:42:52;49444.44;;;-144.14;100.00
7075;BME280;3578;51.568;6.932;2023-03-14T08:45:20;49500.50;;;-144.14;100.00
7075;BME280;3578;51.568;6.932;2023-03-14T08:47:47;49504.50;;;-144.14;100.00
7075;BME280;3578;51.568;6.932;2023-03-14T08:50:14;49476.47;;;-144.14;100.00
7075;BME280;3578;51.568;6.932;2023-03-14T08:52:41;49454.44;;;-144.14;100.00
7075;BME280;3578;51.568;6.932;2023-03-14T08:55:09;49380.38;;;-144.14;100.00
7075;BME280;3578;51.568;6.932;2023-03-14T08:57:36;49336.34;;;-144.14;100.00
7075;BME280;3578;51.568;6.932;2023-03-14T09:00:07;49388.38;;;-144.14;100.00
7075;BME280;3578;51.568;6.932;2023-03-14T09:02:36;49472.47;;;-144.14;100.00
7075;BME280;3578;51.568;6.932;2023-03-14T09:05:04;49514.50;;;-144.14;100.00
7075;BME280;3578;51.568;6.932;2023-03-14T09:07:31;49524.50;;;-144.14;100.00
7075;BME280;3578;51.568;6.932;2023-03-14T09:09:58;49536.53;;;-144.14;100.00
7075;BME280;3578;51.568;6.932;2023-03-14T09:12:26;49608.59;;;-144.14;100.00
7075;BME280;3578;51.568;6.932;2023-03-14T09:14:53;49632.63;;;-144.14;100.00
7075;BME280;3578;51.568;6.932;2023-03-14T09:17:21;49712.69;;;-144.14;100.00
7075;BME280;3578;51.568;6.932;2023-03-14T09:19:48;49796.78;;;-144.14;100.00
7075;BME280;3578;51.568;6.932;2023-03-14T09:22:15;49778.75;;;-144.14;100.00
7075;BME280;3578;51.568;6.932;2023-03-14T09:24:42;49880.88;;;-144.14;100.00
7075;BME280;3578;51.568;6.932;2023-03-14T09:27:10;49856.84;;;-144.14;100.00
7075;BME280;3578;51.568;6.932;2023-03-14T09:29:37;49846.84;;;-144.14;100.00
7075;BME280;3578;51.568;6.932;2023-03-14T09:32:04;49772.75;;;-144.14;100.00
7075;BME280;3578;51.568;6.932;2023-03-14T09:34:32;49674.66;;;-144.14;100.00
7075;BME280;3578;51.568;6.932;2023-03-14T09:37:00;49678.66;;;-144.14;100.00
7075;BME280;3578;51.568;6.932;2023-03-14T09:39:27;49640.63;;;-144.14;100.00
7075;BME280;3578;51.568;6.932;2023-03-14T09:41:56;49684.66;;;-144.14;100.00
7075;BME280;3578;51.568;6.932;2023-03-14T09:44:28;49660.63;;;-144.14;100.00
7075;BME280;3578;51.568;6.932;2023-03-14T09:47:00;49634.63;;;-144.14;100.00
7075;BME280;3578;51.568;6.932;2023-03-14T09:49:33;49538.53;;;-144.14;100.00
7075;BME280;3578;51.568;6.932;2023-03-14T09:52:05;49528.50;;;-144.14;100.00
7075;BME280;3578;51.568;6.932;2023-03-14T09:54:37;49544.53;;;-144.14;100.00
7075;BME280;3578;51.568;6.932;2023-03-14T09:57:08;49752.72;;;-144.14;100.00
7075;BME280;3578;51.568;6.932;2023-03-14T09:59:38;49816.78;;;-144.14;100.00
7075;BME280;3578;51.568;6.932;2023-03-14T10:02:16;49936.91;;;-144.14;100.00
7075;BME280;3578;51.568;6.932;2023-03-14T10:04:47;50073.06;;;-144.14;100.00
7075;BME280;3578;51.568;6.932;2023-03-14T10:07:18;50051.03;;;-144.14;100.00
7075;BME280;3578;51.568;6.932;2023-03-14T10:09:50;50053.06;;;-144.14;100.00
7075;BME280;3578;51.568;6.932;2023-03-14T10:12:17;50033.03;;;-144.14;100.00
7075;BME280;3578;51.568;6.932;2023-03-14T10:14:48;49990.97;;;-144.14;100.00
7075;BME280;3578;51.568;6.932;2023-03-14T10:17:18;49882.88;;;-144.14;100.00
7075;BME280;3578;51.568;6.932;2023-03-14T10:19:55;49818.81;;;-144.14;100.00
7075;BME280;3578;51.568;6.932;2023-03-14T10:22:25;49842.81;;;-144.14;100.00
7075;BME280;3578;51.568;6.932;2023-03-14T10:24:56;49800.78;;;-144.14;100.00
7075;BME280;3578;51.568;6.932;2023-03-14T10:27:29;49876.84;;;-144.14;100.00
7075;BME280;3578;51.568;6.932;2023-03-14T10:29:59;49904.88;;;-144.14;100.00
7075;BME280;3578;51.568;6.932;2023-03-14T10:32:33;49892.88;;;-144.14;100.00
7075;BME280;3578;51.568;6.932;2023-03-14T10:35:18;49906.88;;;-144.14;100.00
7075;BME280;3578;51.568;6.932;2023-03-14T10:37:52;49997.00;;;-144.14;100.00
7075;BME280;3578;51.568;6.932;2023-03-14T10:40:26;50175.19;;;-144.14;100.00
7075;BME280;3578;51.568;6.932;2023-03-14T10:42:54;50265.28;;;-144.14;100.00
7075;BME280;3578;51.568;6.932;2023-03-14T10:45:31;50297.31;;;-144.14;100.00
7075;BME280;3578;51.568;6.932;2023-03-14T10:48:17;50321.34;;;-144.14;100.00
7075;BME280;3578;51.568;6.932;2023-03-14T10:50:54;50501.56;;;-144.14;97.67
7075;BME280;3578;51.568;6.932;2023-03-14T10:53:23;50523.59;;;-144.14;97.73
7075;BME280;3578;51.568;6.932;2023-03-14T10:55:50;50625.72;;;-144.14;97.77
7075;BME280;3578;51.568;6.932;2023-03-14T10:58:23;50583.69;;;-144.14;97.89
7075;BME280;3578;51.568;6.932;2023-03-14T11:01:00;50673.78;;;-144.14;96.67
7075;BME280;3578;51.568;6.932;2023-03-14T11:03:31;50761.91;;;-144.14;95.75
7075;BME280;3578;51.568;6.932;2023-03-14T11:06:06;50819.97;;;-144.14;95.50
7075;BME280;3578;51.568;6.932;2023-03-14T11:08:45;50805.97;;;-144.14;95.98
7075;BME280;3578;51.568;6.932;2023-03-14T11:11:20;50777.91;;;-144.14;96.50
7075;BME280;3578;51.568;6.932;2023-03-14T11:14:01;50773.91;;;-144.14;96.86
7075;BME280;3578;51.568;6.932;2023-03-14T11:16:42;50842.00;;;-144.14;95.82
7075;BME280;3578;51.568;6.932;2023-03-14T11:22:21;51046.28;;;-144.14;92.22
7075;BME280;3578;51.568;6.932;2023-03-14T11:25:06;51128.41;;;-144.14;91.38
7075;BME280;3578;51.568;6.932;2023-03-14T11:27:42;51210.53;;;-144.14;89.72
7075;BME280;3578;51.568;6.932;2023-03-14T11:30:19;51531.00;;;-144.14;86.86
7075;BME280;3578;51.568;6.932;2023-03-14T11:32:57;51583.06;;;-144.14;87.29
7075;BME280;3578;51.568;6.932;2023-03-14T11:35:32;51625.16;;;-144.14;88.04
7075;BME280;3578;51.568;6.932;2023-03-14T11:38:18;51545.00;;;-144.14;90.78
7075;BME280;3578;51.568;6.932;2023-03-14T11:40:48;51619.13;;;-144.14;87.44
7075;BME280;3578;51.568;6.932;2023-03-14T11:43:24;51647.19;;;-144.14;88.72
7075;BME280;3578;51.568;6.932;2023-03-14T11:45:57;51593.09;;;-144.14;89.66
7075;BME280;3578;51.568;6.932;2023-03-14T11:48:37;51601.09;;;-144.14;89.90
7075;BME280;3578;51.568;6.932;2023-03-14T11:51:13;51575.06;;;-144.14;90.44
7075;BME280;3578;51.568;6.932;2023-03-14T11:53:53;51587.09;;;-144.14;90.76
7075;BME280;3578;51.568;6.932;2023-03-14T11:56:31;51557.03;;;-144.14;90.60
7075;BME280;3578;51.568;6.932;2023-03-14T11:59:05;51575.06;;;-144.14;90.19
7075;BME280;3578;51.568;6.932;2023-03-14T12:01:49;51643.16;;;-144.14;88.74
7075;BME280;3578;51.568;6.932;2023-03-14T12:04:30;51699.25;;;-144.14;87.66
7075;BME280;3578;51.568;6.932;2023-03-14T12:07:03;51839.47;;;-144.14;84.74
7075;BME280;3578;51.568;6.932;2023-03-14T12:09:36;51919.63;;;-144.14;82.38
7075;BME280;3578;51.568;6.932;2023-03-14T12:12:04;51959.69;;;-144.14;83.08
7075;BME280;3578;51.568;6.932;2023-03-14T12:14:34;52037.81;;;-144.14;81.14
7075;BME280;3578;51.568;6.932;2023-03-14T12:17:06;52053.84;;;-144.14;80.98
7075;BME280;3578;51.568;6.932;2023-03-14T12:19:37;52103.94;;;-144.14;79.98
7075;BME280;3578;51.568;6.932;2023-03-14T12:22:23;52115.94;;;-144.14;80.42
7075;BME280;3578;51.568;6.932;2023-03-14T12:24:58;52164.03;;;-144.14;80.63
7075;BME280;3578;51.568;6.932;2023-03-14T12:27:49;52208.09;;;-144.14;78.84
7075;BME280;3578;51.568;6.932;2023-03-14T12:30:32;52127.97;;;-144.14;79.20
7075;BME280;3578;51.568;6.932;2023-03-14T12:33:30;52188.06;;;-144.14;81.82
7075;BME280;3578;51.568;6.932;2023-03-14T12:36:04;52127.97;;;-144.14;85.27
7075;BME280;3578;51.568;6.932;2023-03-14T12:38:52;52007.75;;;-144.14;89.74
7075;BME280;3578;51.568;6.932;2023-03-14T12:41:28;51931.63;;;-144.14;90.61
7075;BME280;3578;51.568;6.932;2023-03-14T12:43:56;51931.63;;;-144.14;90.14
7075;BME280;3578;51.568;6.932;2023-03-14T12:46:25;51907.59;;;-144.14;90.74
7075;BME280;3578;51.568;6.932;2023-03-14T12:49:03;51859.50;;;-144.14;92.03
7075;BME280;3578;51.568;6.932;2023-03-14T12:51:36;51865.53;;;-144.14;91.98
7075;BME280;3578;51.568;6.932;2023-03-14T12:54:31;51837.47;;;-144.14;92.22
7075;BME280;3578;51.568;6.932;2023-03-14T12:57:21;51803.44;;;-144.14;91.13
7075;BME280;3578;51.568;6.932;2023-03-14T12:59:55;51877.53;;;-144.14;90.41
7075;BME280;3578;51.568;6.932;2023-03-14T13:02:26;51897.56;;;-144.14;89.50
7075;BME280;3578;51.568;6.932;2023-03-14T13:05:03;51867.53;;;-144.14;90.33
7075;BME280;3578;51.568;6.932;2023-03-14T13:08:04;51865.53;;;-144.14;91.23
7075;BME280;3578;51.568;6.932;2023-03-14T13:10:42;51881.56;;;-144.14;91.66
7075;BME280;3578;51.568;6.932;2023-03-14T13:13:20;51885.56;;;-144.14;90.51